sensor_id;sensor_type;location;lat;lon;timestamp;pressure;altitude;pressure_sealevel;temperature;humidity
29331;BME280;16331;52.528;13.342;2022-12-29T00:00:09;158028.16;;;8.42;100.00
29331;BME280;16331;52.528;13.342;2022-12-29T00:02:35;158033.66;;;8.44;100.00
29331;BME280;16331;52.528;13.342;2022-12-29T00:05:02;158041.84;;;8.47;100.00
29331;BME280;16331;52.528;13.342;2022-12-29T00:07:29;158044.56;;;8.48;100.00
29331;BME280;16331;52.528;13.342;2022-12-29T00:09:55;158058.28;;;8.53;100.00
29331;BME280;16331;52.528;13.342;2022-12-29T00:12:21;158080.19;;;8.61;100.00
29331;BME280;16331;52.528;13.342;2022-12-29T00:14:47;158084.28;;;8.63;100.00
29331;BME280;16331;52.528;13.342;2022-12-29T00:17:31;158096.59;;;8.67;100.00
29331;BME280;16331;52.528;13.342;2022-12-29T00:19:58;158096.59;;;8.67;100.00
29331;BME280;16331;52.528;13.342;2022-12-29T00:22:42;158110.31;;;8.72;100.00
29331;BME280;16331;52.528;13.342;2022-12-29T00:25:27;158126.78;;;8.78;100.00
29331;BME280;16331;52.528;13.342;2022-12-29T00:28:12;158108.97;;;8.72;100.00
29331;BME280;16331;52.528;13.342;2022-12-29T00:31:03;158124.00;;;8.77;100.00
29331;BME280;16331;52.528;13.342;2022-12-29T00:33:52;158110.31;;;8.72;100.00
29331;BME280;16331;52.528;13.342;2022-12-29T00:36:42;158111.69;;;8.73;100.00
29331;BME280;16331;52.528;13.342;2022-12-29T00:39:13;158122.69;;;8.77;100.00
29331;BME280;16331;52.528;13.342;2022-12-29T00:42:08;158130.88;;;8.80;100.00
29331;BME280;16331;52.528;13.342;2022-12-29T00:44:53;158102.09;;;8.69;100.00
29331;BME280;16331;52.528;13.342;2022-12-29T00:47:19;158110.31;;;8.72;100.00
29331;BME280;16331;52.528;13.342;2022-12-29T00:49:45;158093.88;;;8.66;100.00
29331;BME280;16331;52.528;13.342;2022-12-29T00:52:12;158099.38;;;8.68;100.00
29331;BME280;16331;52.528;13.342;2022-12-29T00:54:40;158102.09;;;8.69;100.00
29331;BME280;16331;52.528;13.342;2022-12-29T00:57:09;158081.56;;;8.62;100.00
29331;BME280;16331;52.528;13.342;2022-12-29T00:59:36;158087.06;;;8.64;100.00
29331;BME280;16331;52.528;13.342;2022-12-29T01:02:03;158088.41;;;8.64;100.00
29331;BME280;16331;52.528;13.342;2022-12-29T01:04:29;158080.19;;;8.61;100.00
29331;BME280;16331;52.528;13.342;2022-12-29T01:06:56;158065.16;;;8.56;100.00
29331;BME280;16331;52.528;13.342;2022-12-29T01:09:22;158071.97;;;8.58;100.00
29331;BME280;16331;52.528;13.342;2022-12-29T01:12:08;158066.47;;;8.56;100.00
29331;BME280;16331;52.528;13.342;2022-12-29T01:14:36;158073.34;;;8.59;100.00
29331;BME280;16331;52.528;13.342;2022-12-29T01:17:02;158096.59;;;8.67;100.00
29331;BME280;16331;52.528;13.342;2022-12-29T01:19:30;158098.00;;;8.68;100.00
29331;BME280;16331;52.528;13.342;2022-12-29T01:21:57;158088.41;;;8.64;100.00
29331;BME280;16331;52.528;13.342;2022-12-29T01:24:23;158099.38;;;8.68;100.00
29331;BME280;16331;52.528;13.342;2022-12-29T01:26:51;158098.00;;;8.68;100.00
29331;BME280;16331;52.528;13.342;2022-12-29T01:29:17;158124.00;;;8.77;100.00
29331;BME280;16331;52.528;13.342;2022-12-29T01:31:44;158130.88;;;8.80;100.00
29331;BME280;16331;52.528;13.342;2022-12-29T01:34:10;158118.50;;;8.75;100.00
29331;BME280;16331;52.528;13.342;2022-12-29T01:36:37;158117.19;;;8.75;100.00
29331;BME280;16331;52.528;13.342;2022-12-29T01:39:04;158111.69;;;8.73;100.00
29331;BME280;16331;52.528;13.342;2022-12-29T01:41:30;158107.59;;;8.71;100.00
29331;BME280;16331;52.528;13.342;2022-12-29T01:43:59;158106.19;;;8.71;100.00
29331;BME280;16331;52.528;13.342;2022-12-29T01:46:47;158088.41;;;8.64;100.00
29331;BME280;16331;52.528;13.342;2022-12-29T01:49:23;158084.28;;;8.63;100.00
29331;BME280;16331;52.528;13.342;2022-12-29T01:51:57;158093.88;;;8.66;100.00
29331;BME280;16331;52.528;13.342;2022-12-29T01:54:32;158061.03;;;8.54;100.00
29331;BME280;16331;52.528;13.342;2022-12-29T01:57:03;158052.84;;;8.51;100.00
29331;BME280;16331;52.528;13.342;2022-12-29T01:59:33;158036.38;;;8.45;100.00
29331;BME280;16331;52.528;13.342;2022-12-29T02:02:02;158035.03;;;8.45;100.00
29331;BME280;16331;52.528;13.342;2022-12-29T02:04:30;158037.75;;;8.46;100.00
29331;BME280;16331;52.528;13.342;2022-12-29T02:07:04;158047.34;;;8.49;100.00
29331;BME280;16331;52.528;13.342;2022-12-29T02:09:31;158044.56;;;8.48;100.00
29331;BME280;16331;52.528;13.342;2022-12-29T02:11:58;158028.16;;;8.42;100.00
29331;BME280;16331;52.528;13.342;2022-12-29T02:14:25;158021.34;;;8.40;100.00
29331;BME280;16331;52.528;13.342;2022-12-29T02:28:30;158052.84;;;8.51;100.00
29331;BME280;16331;52.528;13.342;2022-12-29T02:34:01;158065.16;;;8.56;100.00
29331;BME280;16331;52.528;13.342;2022-12-29T02:36:45;158067.88;;;8.57;100.00
29331;BME280;16331;52.528;13.342;2022-12-29T02:39:30;158093.88;;;8.66;100.00
29331;BME280;16331;52.528;13.342;2022-12-29T02:42:33;158096.59;;;8.67;100.00
29331;BME280;16331;52.528;13.342;2022-12-29T02:45:13;158133.59;;;8.81;100.00
29331;BME280;16331;52.528;13.342;2022-12-29T02:48:10;158148.69;;;8.87;100.00
29331;BME280;16331;52.528;13.342;2022-12-29T02:53:21;158203.47;;;9.07;100.00
29331;BME280;16331;52.528;13.342;2022-12-29T02:56:09;158229.50;;;9.16;100.00
29331;BME280;16331;52.528;13.342;2022-12-29T02:58:35;158241.81;;;9.21;100.00
29331;BME280;16331;52.528;13.342;2022-12-29T03:09:19;158315.81;;;9.48;100.00
29331;BME280;16331;52.528;13.342;2022-12-29T03:11:58;158343.25;;;9.58;100.00
29331;BME280;16331;52.528;13.342;2022-12-29T03:14:39;158362.44;;;9.65;100.00
29331;BME280;16331;52.528;13.342;2022-12-29T03:17:48;158380.28;;;9.71;100.00
29331;BME280;16331;52.528;13.342;2022-12-29T03:20:26;158410.44;;;9.82;100.00
29331;BME280;16331;52.528;13.342;2022-12-29T03:23:00;158407.66;;;9.81;100.00
29331;BME280;16331;52.528;13.342;2022-12-29T03:25:40;158428.25;;;9.89;100.00
29331;BME280;16331;52.528;13.342;2022-12-29T03:28:12;158420.03;;;9.86;100.00
29331;BME280;16331;52.528;13.342;2022-12-29T03:30:41;158403.53;;;9.80;100.00
29331;BME280;16331;52.528;13.342;2022-12-29T03:33:13;158410.44;;;9.82;100.00
29331;BME280;16331;52.528;13.342;2022-12-29T03:35:43;158422.75;;;9.87;100.00
29331;BME280;16331;52.528;13.342;2022-12-29T03:38:22;158455.63;;;9.99;100.00
29331;BME280;16331;52.528;13.342;2022-12-29T03:40:52;158436.47;;;9.92;100.00
29331;BME280;16331;52.528;13.342;2022-12-29T03:43:21;158441.97;;;9.94;100.00
29331;BME280;16331;52.528;13.342;2022-12-29T03:45:48;158439.19;;;9.93;100.00
29331;BME280;16331;52.528;13.342;2022-12-29T03:48:14;158444.69;;;9.95;100.00
29331;BME280;16331;52.528;13.342;2022-12-29T03:50:41;158455.63;;;9.99;100.00
29331;BME280;16331;52.528;13.342;2022-12-29T03:53:07;158461.13;;;10.01;100.00
29331;BME280;16331;52.528;13.342;2022-12-29T03:55:33;158469.34;;;10.04;100.00
29331;BME280;16331;52.528;13.342;2022-12-29T03:57:59;158483.13;;;10.09;100.00
29331;BME280;16331;52.528;13.342;2022-12-29T04:00:25;158503.69;;;10.16;100.00
29331;BME280;16331;52.528;13.342;2022-12-29T04:02:51;158524.28;;;10.24;100.00
29331;BME280;16331;52.528;13.342;2022-12-29T04:05:17;158524.28;;;10.24;100.00
29331;BME280;16331;52.528;13.342;2022-12-29T04:07:44;158529.75;;;10.26;100.00
29331;BME280;16331;52.528;13.342;2022-12-29T04:10:11;158555.78;;;10.36;100.00
29331;BME280;16331;52.528;13.342;2022-12-29T04:12:37;158562.69;;;10.38;100.00
29331;BME280;16331;52.528;13.342;2022-12-29T04:15:03;158576.41;;;10.43;100.00
29331;BME280;16331;52.528;13.342;2022-12-29T04:17:29;158573.63;;;10.42;100.00
29331;BME280;16331;52.528;13.342;2022-12-29T04:19:56;158587.34;;;10.47;100.00
29331;BME280;16331;52.528;13.342;2022-12-29T04:22:42;158586.03;;;10.47;100.00
29331;BME280;16331;52.528;13.342;2022-12-29T04:25:08;158592.84;;;10.49;100.00
29331;BME280;16331;52.528;13.342;2022-12-29T04:27:34;158612.09;;;10.56;100.00
29331;BME280;16331;52.528;13.342;2022-12-29T04:30:01;158583.25;;;10.46;100.00
29331;BME280;16331;52.528;13.342;2022-12-29T04:32:27;158590.13;;;10.48;100.00
29331;BME280;16331;52.528;13.342;2022-12-29T04:34:53;158564.06;;;10.39;100.00
29331;BME280;16331;52.528;13.342;2022-12-29T04:37:19;158547.56;;;10.33;100.00
29331;BME280;16331;52.528;13.342;2022-12-29T04:39:45;158570.91;;;10.41;100.00
29331;BME280;16331;52.528;13.342;2022-12-29T04:42:11;158562.69;;;10.38;100.00
29331;BME280;16331;52.528;13.342;2022-12-29T04:44:37;158536.63;;;10.29;100.00
29331;BME280;16331;52.528;13.342;2022-12-29T04:47:04;158538.00;;;10.29;100.00
29331;BME280;16331;52.528;13.342;2022-12-29T04:49:30;158525.63;;;10.24;100.00
29331;BME280;16331;52.528;13.342;2022-12-29T04:51:56;158524.28;;;10.24;100.00
29331;BME280;16331;52.528;13.342;2022-12-29T04:54:22;158536.63;;;10.29;100.00
29331;BME280;16331;52.528;13.342;2022-12-29T04:56:48;158538.00;;;10.29;100.00
29331;BME280;16331;52.528;13.342;2022-12-29T04:59:15;158543.47;;;10.31;100.00
29331;BME280;16331;52.528;13.342;2022-12-29T05:01:43;158573.63;;;10.42;100.00
29331;BME280;16331;52.528;13.342;2022-12-29T05:04:09;158565.41;;;10.39;100.00
29331;BME280;16331;52.528;13.342;2022-12-29T05:06:35;158559.97;;;10.37;100.00
29331;BME280;16331;52.528;13.342;2022-12-29T05:09:01;158579.13;;;10.44;100.00
29331;BME280;16331;52.528;13.342;2022-12-29T05:11:27;158569.53;;;10.41;100.00
29331;BME280;16331;52.528;13.342;2022-12-29T05:13:53;158569.53;;;10.41;100.00
29331;BME280;16331;52.528;13.342;2022-12-29T05:16:19;158565.41;;;10.39;100.00
29331;BME280;16331;52.528;13.342;2022-12-29T05:18:45;158595.59;;;10.50;100.00
29331;BME280;16331;52.528;13.342;2022-12-29T05:21:17;158580.53;;;10.45;100.00
29331;BME280;16331;52.528;13.342;2022-12-29T05:23:43;158592.84;;;10.49;100.00
29331;BME280;16331;52.528;13.342;2022-12-29T05:26:09;158580.53;;;10.45;100.00
29331;BME280;16331;52.528;13.342;2022-12-29T05:28:35;158598.34;;;10.51;100.00
29331;BME280;16331;52.528;13.342;2022-12-29T05:31:01;158606.59;;;10.54;100.00
29331;BME280;16331;52.528;13.342;2022-12-29T05:33:27;158603.88;;;10.53;100.00
29331;BME280;16331;52.528;13.342;2022-12-29T05:35:53;158616.19;;;10.58;100.00
29331;BME280;16331;52.528;13.342;2022-12-29T05:38:19;158650.50;;;10.70;100.00
29331;BME280;16331;52.528;13.342;2022-12-29T05:40:45;158651.88;;;10.71;100.00
29331;BME280;16331;52.528;13.342;2022-12-29T05:43:12;158651.88;;;10.71;100.00
29331;BME280;16331;52.528;13.342;2022-12-29T05:45:38;158640.88;;;10.67;100.00
29331;BME280;16331;52.528;13.342;2022-12-29T05:48:04;158669.66;;;10.77;100.00
29331;BME280;16331;52.528;13.342;2022-12-29T05:50:30;158662.81;;;10.75;100.00
29331;BME280;16331;52.528;13.342;2022-12-29T05:53:22;158691.63;;;10.85;100.00
29331;BME280;16331;52.528;13.342;2022-12-29T05:55:50;158688.91;;;10.84;100.00
29331;BME280;16331;52.528;13.342;2022-12-29T05:58:17;158710.84;;;10.92;100.00
29331;BME280;16331;52.528;13.342;2022-12-29T06:00:43;158698.50;;;10.88;100.00
29331;BME280;16331;52.528;13.342;2022-12-29T06:03:11;158712.25;;;10.93;100.00
29331;BME280;16331;52.528;13.342;2022-12-29T06:05:37;158731.41;;;11.00;100.00
29331;BME280;16331;52.528;13.342;2022-12-29T06:08:04;158756.16;;;11.09;100.00
29331;BME280;16331;52.528;13.342;2022-12-29T06:10:31;158768.50;;;11.13;100.00
29331;BME280;16331;52.528;13.342;2022-12-29T06:12:57;158775.34;;;11.16;100.00
29331;BME280;16331;52.528;13.342;2022-12-29T06:15:24;158776.75;;;11.16;100.00
29331;BME280;16331;52.528;13.342;2022-12-29T06:17:50;158769.91;;;11.14;100.00
29331;BME280;16331;52.528;13.342;2022-12-29T06:20:16;158776.75;;;11.16;100.00
29331;BME280;16331;52.528;13.342;2022-12-29T06:22:43;158790.47;;;11.21;100.00
29331;BME280;16331;52.528;13.342;2022-12-29T06:25:09;158793.19;;;11.22;100.00
29331;BME280;16331;52.528;13.342;2022-12-29T06:27:35;158801.44;;;11.25;100.00
29331;BME280;16331;52.528;13.342;2022-12-29T06:30:01;158802.81;;;11.26;100.00
29331;BME280;16331;52.528;13.342;2022-12-29T06:32:28;158798.69;;;11.24;100.00
29331;BME280;16331;52.528;13.342;2022-12-29T06:34:54;158808.31;;;11.28;100.00
29331;BME280;16331;52.528;13.342;2022-12-29T06:37:20;158808.31;;;11.28;100.00
29331;BME280;16331;52.528;13.342;2022-12-29T06:39:46;158838.53;;;11.39;100.00
29331;BME280;16331;52.528;13.342;2022-12-29T06:42:12;158831.63;;;11.36;100.00
29331;BME280;16331;52.528;13.342;2022-12-29T06:44:38;158805.53;;;11.27;100.00
29331;BME280;16331;52.528;13.342;2022-12-29T06:47:04;158811.03;;;11.29;100.00
29331;BME280;16331;52.528;13.342;2022-12-29T06:49:32;158824.78;;;11.34;100.00
29331;BME280;16331;52.528;13.342;2022-12-29T06:51:58;158816.56;;;11.31;100.00
29331;BME280;16331;52.528;13.342;2022-12-29T06:54:26;158819.28;;;11.32;100.00
29331;BME280;16331;52.528;13.342;2022-12-29T06:56:52;158808.31;;;11.28;100.00
29331;BME280;16331;52.528;13.342;2022-12-29T06:59:19;158793.19;;;11.22;100.00
29331;BME280;16331;52.528;13.342;2022-12-29T07:01:45;158794.59;;;11.23;100.00
29331;BME280;16331;52.528;13.342;2022-12-29T07:04:11;158774.00;;;11.15;100.00
29331;BME280;16331;52.528;13.342;2022-12-29T07:06:37;158784.97;;;11.19;100.00
29331;BME280;16331;52.528;13.342;2022-12-29T07:09:03;158787.75;;;11.20;100.00
29331;BME280;16331;52.528;13.342;2022-12-29T07:11:31;158769.91;;;11.14;100.00
29331;BME280;16331;52.528;13.342;2022-12-29T07:13:57;158760.28;;;11.10;100.00
29331;BME280;16331;52.528;13.342;2022-12-29T07:16:23;158752.06;;;11.07;100.00
29331;BME280;16331;52.528;13.342;2022-12-29T07:18:49;158763.00;;;11.11;100.00
29331;BME280;16331;52.528;13.342;2022-12-29T07:21:15;158754.78;;;11.08;100.00
29331;BME280;16331;52.528;13.342;2022-12-29T07:23:42;158738.31;;;11.02;100.00
29331;BME280;16331;52.528;13.342;2022-12-29T07:26:11;158730.09;;;10.99;100.00
29331;BME280;16331;52.528;13.342;2022-12-29T07:28:38;158716.34;;;10.94;100.00
29331;BME280;16331;52.528;13.342;2022-12-29T07:31:05;158713.56;;;10.93;100.00
29331;BME280;16331;52.528;13.342;2022-12-29T07:33:32;158720.47;;;10.96;100.00
29331;BME280;16331;52.528;13.342;2022-12-29T07:35:59;158704.00;;;10.90;100.00
29331;BME280;16331;52.528;13.342;2022-12-29T07:38:25;158688.91;;;10.84;100.00
29331;BME280;16331;52.528;13.342;2022-12-29T07:40:56;158687.50;;;10.84;100.00
29331;BME280;16331;52.528;13.342;2022-12-29T07:43:22;158706.75;;;10.91;100.00
29331;BME280;16331;52.528;13.342;2022-12-29T07:45:48;158709.47;;;10.92;100.00
29331;BME280;16331;52.528;13.342;2022-12-29T07:48:14;158719.09;;;10.95;100.00
29331;BME280;16331;52.528;13.342;2022-12-29T07:50:41;158727.31;;;10.98;100.00
29331;BME280;16331;52.528;13.342;2022-12-29T07:53:07;158736.94;;;11.02;100.00
29331;BME280;16331;52.528;13.342;2022-12-29T07:55:33;158735.53;;;11.01;100.00
29331;BME280;16331;52.528;13.342;2022-12-29T07:58:01;158739.66;;;11.03;100.00
29331;BME280;16331;52.528;13.342;2022-12-29T08:00:27;158738.31;;;11.02;100.00
29331;BME280;16331;52.528;13.342;2022-12-29T08:02:53;158768.50;;;11.13;100.00
29331;BME280;16331;52.528;13.342;2022-12-29T08:05:19;158741.03;;;11.03;100.00
29331;BME280;16331;52.528;13.342;2022-12-29T08:07:47;158730.09;;;10.99;100.00
29331;BME280;16331;52.528;13.342;2022-12-29T08:10:14;158736.94;;;11.02;100.00
29331;BME280;16331;52.528;13.342;2022-12-29T08:12:41;158735.53;;;11.01;100.00
29331;BME280;16331;52.528;13.342;2022-12-29T08:15:11;158746.53;;;11.05;100.00
29331;BME280;16331;52.528;13.342;2022-12-29T08:17:39;158753.38;;;11.08;100.00
29331;BME280;16331;52.528;13.342;2022-12-29T08:20:06;158765.78;;;11.12;100.00
29331;BME280;16331;52.528;13.342;2022-12-29T08:22:32;158765.78;;;11.12;100.00
29331;BME280;16331;52.528;13.342;2022-12-29T08:24:58;158760.28;;;11.10;100.00
29331;BME280;16331;52.528;13.342;2022-12-29T08:27:25;158769.91;;;11.14;100.00
29331;BME280;16331;52.528;13.342;2022-12-29T08:29:54;158754.78;;;11.08;100.00
29331;BME280;16331;52.528;13.342;2022-12-29T08:32:20;158760.28;;;11.10;100.00
29331;BME280;16331;52.528;13.342;2022-12-29T08:34:46;158743.81;;;11.04;100.00
29331;BME280;16331;52.528;13.342;2022-12-29T08:37:12;158743.81;;;11.04;100.00
29331;BME280;16331;52.528;13.342;2022-12-29T08:39:39;158761.63;;;11.11;100.00
29331;BME280;16331;52.528;13.342;2022-12-29T08:42:06;158765.78;;;11.12;100.00
29331;BME280;16331;52.528;13.342;2022-12-29T08:44:32;158757.50;;;11.09;100.00
29331;BME280;16331;52.528;13.342;2022-12-29T08:46:58;158763.00;;;11.11;100.00
29331;BME280;16331;52.528;13.342;2022-12-29T08:49:25;158793.19;;;11.22;100.00
29331;BME280;16331;52.528;13.342;2022-12-29T08:51:51;158827.50;;;11.35;100.00
29331;BME280;16331;52.528;13.342;2022-12-29T08:54:19;158834.41;;;11.37;100.00
29331;BME280;16331;52.528;13.342;2022-12-29T08:56:45;158838.53;;;11.39;100.00
29331;BME280;16331;52.528;13.342;2022-12-29T08:59:14;158871.44;;;11.51;100.00
29331;BME280;16331;52.528;13.342;2022-12-29T09:01:40;158879.72;;;11.54;100.00
29331;BME280;16331;52.528;13.342;2022-12-29T09:04:07;158864.59;;;11.48;100.00
29331;BME280;16331;52.528;13.342;2022-12-29T09:06:33;158864.59;;;11.48;100.00
29331;BME280;16331;52.528;13.342;2022-12-29T09:09:00;158854.97;;;11.45;100.00
29331;BME280;16331;52.528;13.342;2022-12-29T09:11:26;158845.34;;;11.41;100.00
29331;BME280;16331;52.528;13.342;2022-12-29T09:13:52;158846.75;;;11.42;100.00
29331;BME280;16331;52.528;13.342;2022-12-29T09:16:20;158890.69;;;11.58;100.00
29331;BME280;16331;52.528;13.342;2022-12-29T09:18:46;158898.91;;;11.61;100.00
29331;BME280;16331;52.528;13.342;2022-12-29T09:21:13;158916.81;;;11.68;100.00
29331;BME280;16331;52.528;13.342;2022-12-29T09:23:40;158947.03;;;11.79;100.00
29331;BME280;16331;52.528;13.342;2022-12-29T09:26:07;158952.53;;;11.81;100.00
29331;BME280;16331;52.528;13.342;2022-12-29T09:28:34;158988.25;;;11.94;100.00
29331;BME280;16331;52.528;13.342;2022-12-29T09:31:00;158981.38;;;11.91;100.00
29331;BME280;16331;52.528;13.342;2022-12-29T09:33:27;158982.75;;;11.92;100.00
29331;BME280;16331;52.528;13.342;2022-12-29T09:35:55;158982.75;;;11.92;100.00
29331;BME280;16331;52.528;13.342;2022-12-29T09:38:22;158978.63;;;11.90;100.00
29331;BME280;16331;52.528;13.342;2022-12-29T09:40:59;158962.16;;;11.84;100.00
29331;BME280;16331;52.528;13.342;2022-12-29T09:43:54;158960.78;;;11.84;100.00
29331;BME280;16331;52.528;13.342;2022-12-29T09:46:43;158999.22;;;11.98;100.00
29331;BME280;16331;52.528;13.342;2022-12-29T09:51:55;159047.31;;;12.15;100.00
29331;BME280;16331;52.528;13.342;2022-12-29T09:55:01;159076.19;;;12.26;100.00
29331;BME280;16331;52.528;13.342;2022-12-29T09:57:49;159069.28;;;12.23;100.00
29331;BME280;16331;52.528;13.342;2022-12-29T10:00:28;159065.16;;;12.22;100.00
29331;BME280;16331;52.528;13.342;2022-12-29T10:03:05;159065.16;;;12.22;100.00
29331;BME280;16331;52.528;13.342;2022-12-29T10:05:57;159069.28;;;12.23;100.00
29331;BME280;16331;52.528;13.342;2022-12-29T10:17:08;159061.06;;;12.20;100.00
29331;BME280;16331;52.528;13.342;2022-12-29T10:20:02;159098.19;;;12.34;100.00
29331;BME280;16331;52.528;13.342;2022-12-29T10:25:26;159147.59;;;12.52;100.00
29331;BME280;16331;52.528;13.342;2022-12-29T10:27:57;159186.13;;;12.66;100.00
29331;BME280;16331;52.528;13.342;2022-12-29T10:30:27;159278.25;;;12.99;100.00
29331;BME280;16331;52.528;13.342;2022-12-29T10:33:18;159311.25;;;13.12;100.00
29331;BME280;16331;52.528;13.342;2022-12-29T10:35:45;159367.63;;;13.32;100.00
29331;BME280;16331;52.528;13.342;2022-12-29T10:38:28;159370.44;;;13.33;100.00
29331;BME280;16331;52.528;13.342;2022-12-29T10:41:28;159381.41;;;13.37;100.00
29331;BME280;16331;52.528;13.342;2022-12-29T10:44:01;159446.03;;;13.61;100.00
29331;BME280;16331;52.528;13.342;2022-12-29T10:46:34;159432.28;;;13.56;100.00
29331;BME280;16331;52.528;13.342;2022-12-29T10:49:02;159452.94;;;13.63;100.00
29331;BME280;16331;52.528;13.342;2022-12-29T10:51:32;159389.66;;;13.40;100.00
29331;BME280;16331;52.528;13.342;2022-12-29T10:54:44;159363.53;;;13.31;100.00
29331;BME280;16331;52.528;13.342;2022-12-29T10:57:23;159399.28;;;13.44;100.00
29331;BME280;16331;52.528;13.342;2022-12-29T10:59:51;159377.28;;;13.36;100.00
29331;BME280;16331;52.528;13.342;2022-12-29T11:02:50;159375.88;;;13.35;100.00
29331;BME280;16331;52.528;13.342;2022-12-29T11:05:52;159362.13;;;13.30;100.00
29331;BME280;16331;52.528;13.342;2022-12-29T11:08:25;159362.13;;;13.30;100.00
29331;BME280;16331;52.528;13.342;2022-12-29T11:11:03;159359.38;;;13.29;100.00
29331;BME280;16331;52.528;13.342;2022-12-29T11:13:54;159326.41;;;13.17;100.00
29331;BME280;16331;52.528;13.342;2022-12-29T11:16:34;159342.91;;;13.23;100.00
29331;BME280;16331;52.528;13.342;2022-12-29T11:19:01;159325.03;;;13.17;100.00
29331;BME280;16331;52.528;13.342;2022-12-29T11:21:36;159325.03;;;13.17;100.00
29331;BME280;16331;52.528;13.342;2022-12-29T11:24:19;159349.75;;;13.26;100.00
29331;BME280;16331;52.528;13.342;2022-12-29T11:26:46;159322.28;;;13.16;100.00
29331;BME280;16331;52.528;13.342;2022-12-29T11:29:21;159305.75;;;13.09;100.00
29331;BME280;16331;52.528;13.342;2022-12-29T11:31:54;159331.88;;;13.19;100.00
29331;BME280;16331;52.528;13.342;2022-12-29T11:34:33;159315.38;;;13.13;100.00
29331;BME280;16331;52.528;13.342;2022-12-29T11:37:10;159307.16;;;13.10;100.00
29331;BME280;16331;52.528;13.342;2022-12-29T11:39:54;159294.78;;;13.05;100.00
29331;BME280;16331;52.528;13.342;2022-12-29T11:42:37;159281.03;;;13.00;100.00
29331;BME280;16331;52.528;13.342;2022-12-29T11:47:37;159239.69;;;12.85;100.00
29331;BME280;16331;52.528;13.342;2022-12-29T11:50:06;159221.81;;;12.79;100.00
29331;BME280;16331;52.528;13.342;2022-12-29T11:52:34;159214.97;;;12.76;100.00
29331;BME280;16331;52.528;13.342;2022-12-29T11:55:04;159190.25;;;12.67;100.00
29331;BME280;16331;52.528;13.342;2022-12-29T11:57:34;159208.13;;;12.74;100.00
29331;BME280;16331;52.528;13.342;2022-12-29T12:00:05;159194.38;;;12.69;100.00
29331;BME280;16331;52.528;13.342;2022-12-29T12:02:53;159077.53;;;12.26;100.00
29331;BME280;16331;52.528;13.342;2022-12-29T12:05:46;159000.63;;;11.98;100.00
29331;BME280;16331;52.528;13.342;2022-12-29T12:08:33;158916.81;;;11.68;100.00
29331;BME280;16331;52.528;13.342;2022-12-29T12:11:20;158841.25;;;11.40;100.00
29331;BME280;16331;52.528;13.342;2022-12-29T12:16:22;158795.97;;;11.23;100.00
29331;BME280;16331;52.528;13.342;2022-12-29T12:18:57;158774.00;;;11.15;100.00
29331;BME280;16331;52.528;13.342;2022-12-29T12:21:32;158756.16;;;11.09;100.00
29331;BME280;16331;52.528;13.342;2022-12-29T12:27:04;158732.81;;;11.00;100.00
29331;BME280;16331;52.528;13.342;2022-12-29T12:29:45;158738.31;;;11.02;100.00
29331;BME280;16331;52.528;13.342;2022-12-29T12:35:12;158741.03;;;11.03;100.00
29331;BME280;16331;52.528;13.342;2022-12-29T12:37:52;158746.53;;;11.05;100.00
29331;BME280;16331;52.528;13.342;2022-12-29T12:40:34;158761.63;;;11.11;100.00
29331;BME280;16331;52.528;13.342;2022-12-29T12:43:08;158780.84;;;11.18;100.00
29331;BME280;16331;52.528;13.342;2022-12-29T12:45:50;158815.16;;;11.30;100.00
29331;BME280;16331;52.528;13.342;2022-12-29T12:54:25;158823.41;;;11.33;100.00
29331;BME280;16331;52.528;13.342;2022-12-29T13:00:17;158974.53;;;11.89;100.00
29331;BME280;16331;52.528;13.342;2022-12-29T13:11:48;158886.56;;;11.56;100.00
29331;BME280;16331;52.528;13.342;2022-12-29T13:14:42;158896.19;;;11.60;100.00
29331;BME280;16331;52.528;13.342;2022-12-29T13:17:22;158911.31;;;11.65;100.00
29331;BME280;16331;52.528;13.342;2022-12-29T13:23:11;158925.06;;;11.71;100.00
29331;BME280;16331;52.528;13.342;2022-12-29T13:26:12;158900.31;;;11.61;100.00
29331;BME280;16331;52.528;13.342;2022-12-29T13:34:31;158857.75;;;11.46;100.00
29331;BME280;16331;52.528;13.342;2022-12-29T13:37:18;158864.59;;;11.48;100.00
29331;BME280;16331;52.528;13.342;2022-12-29T13:39:55;158850.88;;;11.43;100.00
29331;BME280;16331;52.528;13.342;2022-12-29T13:42:24;158875.56;;;11.52;100.00
29331;BME280;16331;52.528;13.342;2022-12-29T13:45:03;158872.84;;;11.51;100.00
29331;BME280;16331;52.528;13.342;2022-12-29T13:47:44;158910.00;;;11.65;100.00
29331;BME280;16331;52.528;13.342;2022-12-29T13:50:18;158911.31;;;11.65;100.00
29331;BME280;16331;52.528;13.342;2022-12-29T13:52:48;158927.84;;;11.72;100.00
29331;BME280;16331;52.528;13.342;2022-12-29T13:55:27;158915.44;;;11.67;100.00
29331;BME280;16331;52.528;13.342;2022-12-29T14:00:35;158916.81;;;11.68;100.00
29331;BME280;16331;52.528;13.342;2022-12-29T14:03:41;158919.56;;;11.68;100.00
29331;BME280;16331;52.528;13.342;2022-12-29T14:08:55;158890.69;;;11.58;100.00
29331;BME280;16331;52.528;13.342;2022-12-29T14:11:23;158879.72;;;11.54;100.00
29331;BME280;16331;52.528;13.342;2022-12-29T14:13:54;158874.22;;;11.52;100.00
29331;BME280;16331;52.528;13.342;2022-12-29T14:16:32;158864.59;;;11.48;100.00
29331;BME280;16331;52.528;13.342;2022-12-29T14:19:13;158878.34;;;11.53;100.00